20011205: Strange NOAAPort Header

On Wed, 5 Dec 2001, Alan Hall wrote:

> Does anyone recognize any of these headers:
>
> FTBZ SBBR 052100
> FABZ SBBR 052200
> SICL RPLC 052100
>
> Alan.
>
>
>


Alan,

Dec 05 20:32:52  Noaaport sequence number 55440998 was "FTBZ SBBR 052100"
Dec 05 20:32:57  Noaaport sequence number 55441131 was "FABZ SBBR 052200"
Dec 05 20:56:11  Noaaport sequence number 55458149 was "SICL RPLC 052100"

The last 3 digits of the NOAAPORT sequence numbe is the sequence number in the
products below.

Steve Chiswell
Unidata User Support


998 ^M
FTBZ SBBR 052100Z^M
TAF SBBR 052100Z 060000 00000KT 9999 CAVOK BECMG 0709 SCT015 SCT090^M
PROB40 1624 TS SCT020 FEW025CB SCT100 T28/18Z T20/08Z=^M


131 ^M
FABZ SBBR 052200Z^M
SBBS GAMET VALID 060000/060600 UTC SBBR-^M
BRASILIA FIR/1 BLW FL100^M
SECN I^M
HAZARDOUS WX NIL^M
SECN II^M
WIND/T: S4 - 2000FT 060/05KT PS 16 5000FT 070/15KT PS 14 10000FT 110^M
/15KT PS 06^M
S5 - 2000FT 010/05KT PS 19 5000FT 030/15KT PS 17 10000FT 050^M
/10KT PS 07^M
S6 - 2000FT 090/05KT PS 20 5000FT 110/20KT PS 16 10000FT 130^M
/10KT PS 08^M
S7 - 2000FT 060/05KT PS 16 5000FT 070/15KT PS 14 10000FT 110^M
/15KT PS 06^M
MNM QNH:1009HPA=^M


149 ^M
SICL RPLC 052100^M
AAXX 05211 98327^M
33/// /0000 10235 20221 39908 40087 52006^M
33300 56///=